Terminal Aerodrome Forecast
Issued by NWS

Home | Current Version | Previous Version | Text Only | Print | Product List | Glossary On
Versions: 1 2 3 4 5 6 7 8 9 10 11 12 13 14
000
FTUS45 KREV 200844 AAA
TAFCXP
TAF AMD
KCXP 200844Z 2009/2106 22015G28KT P6SM SCT060 BKN140
     FM201100 24015G28KT P6SM -RA SCT035 OVC050
     FM201400 27014G22KT P6SM BKN060
     FM201800 29012G22KT P6SM SCT060 SCT090
     FM210300 29005KT P6SM SCT180=

USA.gov is the U.S. government's official web portal to all federal, state and local government web resources and services.